SILO ALERT LOG
| Silo ID | Alert Type | Alert Message | Silo Type | Points | Depth (mm) | Strength | Temperature (°C) | Humidity (%) | Height (mm) | Volume (㎥) | Weight (t) | Flag | Time |
|---|---|---|---|---|---|---|---|---|---|---|---|---|---|
| DJSSD01 | Humidity | 습도센서 측정값이 80% 초과 | 평 | 789 | 2580 | 4620 | 6.4 | 84.2 | 5499 | 765.411 | 483.893 | 0 | 2024-01-13 13:39:33.000 |
| DJSSD05 | Temperature | 온도센서 측정값이 0도 미만 | 평 | 842 | 2550 | 4875 | -45.4 | 43.5 | 5529 | 769.558 | 486.515 | 0 | 2024-01-13 13:39:33.000 |
| DJSSD04 | Temperature | 온도센서 상태 이상 | 평 | 0 | 8200 | 0 | -999 | -999 | -120 | -16.702 | 0 | 31 | 2024-01-13 13:39:33.000 |
| DJSAD08 | Humidity | 습도센서 측정값이 80% 초과 | 평 | 567 | 2358 | 4914 | 9.7 | 84 | 5221 | 743.045 | 469.753 | 12 | 2024-01-13 13:39:32.000 |
| DJDJD04 | Humidity | 습도센서 측정값이 80% 초과 | 평 | 279 | 4169 | 4307 | 7.2 | 81.4 | 3510 | 425.271 | 268.856 | 11 | 2024-01-13 13:39:32.000 |
| DJSAD16 | Humidity | 습도센서 측정값이 80% 초과 | 평 | 88 | 6035 | 3390 | 8.2 | 81.2 | 1544 | 153.77 | 97.213 | 11 | 2024-01-13 13:39:31.000 |
| DJSSD09 | Temperature | 온도센서 측정값이 0도 미만 | 평 | 127 | 2865 | 2930 | -45.4 | 0 | 4814 | 670.086 | 423.628 | 11 | 2024-01-13 13:39:31.000 |
| DJSAD18 | Humidity | 습도센서 측정값이 80% 초과 | 평 | 117 | 1400 | 5754 | 7.2 | 80.8 | 6179 | 615.323 | 389.007 | 11 | 2024-01-13 13:39:30.000 |
| DJSAD17 | Humidity | 습도센서 측정값이 80% 초과 | 평 | 439 | 3114 | 4979 | 6.3 | 82.1 | 4465 | 444.654 | 281.11 | 0 | 2024-01-13 13:39:30.000 |
| DJSSD12 | Temperature | 온도센서 상태 이상 | 호퍼 | 0 | 11350 | 0 | -999 | -999 | -120 | 0 | 0 | 31 | 2024-01-13 13:39:24.000 |
| DJHNR03 | Temperature | 온도센서 상태 이상 | 호퍼 | 0 | 15500 | 0 | -999 | -999 | -119 | 0 | 0 | 31 | 2024-01-13 13:39:24.000 |
| DJHNR12 | Humidity | 습도센서 측정값이 80% 초과 | 호퍼 | 0 | 10500 | 0 | 5.1 | 80.8 | -120 | 0 | 0 | 31 | 2024-01-13 13:39:23.000 |
| DJSAD01 | Humidity | 습도센서 측정값이 80% 초과 | 평 | 475 | 1483 | 7560 | 3.8 | 82.8 | 7296 | 302.063 | 190.964 | 0 | 2024-01-13 12:39:40.000 |
| DJSAD02 | Humidity | 습도센서 측정값이 80% 초과 | 평 | 384 | 1137 | 4350 | 3.3 | 86.2 | 7642 | 316.372 | 200.01 | 11 | 2024-01-13 12:39:39.000 |
| DJSAD03 | Humidity | 습도센서 측정값이 80% 초과 | 평 | 439 | 1672 | 6105 | 6.3 | 84.5 | 7107 | 294.224 | 186.009 | 0 | 2024-01-13 12:39:39.000 |
| DJDJD04 | Humidity | 습도센서 측정값이 80% 초과 | 평 | 283 | 4200 | 4348 | 6.2 | 82 | 3479 | 421.558 | 266.509 | 11 | 2024-01-13 12:39:33.000 |
| DJSSD04 | Temperature | 온도센서 상태 이상 | 평 | 0 | 8200 | 0 | -999 | -999 | -120 | -16.702 | 0 | 31 | 2024-01-13 12:39:33.000 |
| DJSSD09 | Temperature | 온도센서 측정값이 0도 미만 | 평 | 129 | 2847 | 2647 | -45.4 | 0 | 4832 | 672.575 | 425.202 | 11 | 2024-01-13 12:39:32.000 |
| DJHNR01 | Humidity | 습도센서 측정값이 80% 초과 | 호퍼 | 471 | 4307 | 4804 | 8.7 | 96.8 | 11072 | 472.828 | 298.922 | 13 | 2024-01-13 12:39:32.000 |
| DJSAD08 | Humidity | 습도센서 측정값이 80% 초과 | 평 | 569 | 2354 | 4885 | 8.9 | 84.2 | 5225 | 743.56 | 470.079 | 12 | 2024-01-13 12:39:32.000 |
[첫 페이지] [9968] [9969] [9970] [9971] 9972 [9973] [9974] [9975] [9976] [마지막 페이지]